createdAt,value
2023-08-31T00:01:21.878Z,91.38
2023-08-31T00:03:49.113Z,91.82
2023-08-31T00:06:16.232Z,92.08
2023-08-31T00:08:43.338Z,92.46
2023-08-31T00:11:10.441Z,92.88
2023-08-31T00:13:37.598Z,92.54
2023-08-31T00:16:06.075Z,93.89
2023-08-31T00:18:33.155Z,93.98
2023-08-31T00:21:00.300Z,93.78
2023-08-31T00:23:27.331Z,93.28
2023-08-31T00:25:54.760Z,93.69
2023-08-31T00:28:22.542Z,93.61
2023-08-31T00:30:50.146Z,91.93
2023-08-31T00:33:17.680Z,91.61
2023-08-31T00:35:49.305Z,93.15
2023-08-31T00:38:16.478Z,94.19
2023-08-31T00:40:45.884Z,95.04
2023-08-31T00:43:16.726Z,95.14
2023-08-31T00:45:45.367Z,94.89
2023-08-31T00:48:13.253Z,92.49
2023-08-31T00:50:40.715Z,92.00
2023-08-31T00:53:07.999Z,93.73
2023-08-31T00:55:35.335Z,93.68
2023-08-31T00:58:02.404Z,91.78
2023-08-31T01:00:34.432Z,89.08
2023-08-31T01:03:04.975Z,89.34
2023-08-31T01:05:55.468Z,89.66
2023-08-31T01:08:31.183Z,90.44
2023-08-31T01:10:58.335Z,89.47
2023-08-31T01:13:25.744Z,90.39
2023-08-31T01:15:57.273Z,91.60
2023-08-31T01:18:26.665Z,92.68
2023-08-31T01:21:03.442Z,93.17
2023-08-31T01:23:35.753Z,91.01
2023-08-31T01:26:03.377Z,91.52
2023-08-31T01:28:30.700Z,90.86
2023-08-31T01:30:58.326Z,91.67
2023-08-31T01:33:25.752Z,91.83
2023-08-31T01:35:55.517Z,91.74
2023-08-31T01:38:28.474Z,92.25
2023-08-31T01:40:58.867Z,93.07
2023-08-31T01:43:26.200Z,91.53
2023-08-31T01:45:55.012Z,92.61
2023-08-31T01:48:22.373Z,92.26
2023-08-31T01:50:49.432Z,92.85
2023-08-31T01:53:16.629Z,93.14
2023-08-31T01:55:43.728Z,92.86
2023-08-31T01:58:10.968Z,92.90
2023-08-31T02:00:39.715Z,92.87
2023-08-31T02:03:09.259Z,91.49
2023-08-31T02:05:36.626Z,92.10
2023-08-31T02:08:03.869Z,90.64
2023-08-31T02:10:31.089Z,89.60
2023-08-31T02:12:58.152Z,89.67
2023-08-31T02:15:25.701Z,89.76
2023-08-31T02:17:54.030Z,91.00
2023-08-31T02:20:21.646Z,91.96
2023-08-31T02:22:49.820Z,91.89
2023-08-31T02:25:17.798Z,91.92
2023-08-31T02:27:47.010Z,90.72
2023-08-31T02:30:16.106Z,91.31
2023-08-31T02:32:44.143Z,93.36
2023-08-31T02:35:14.797Z,94.03
2023-08-31T02:37:42.399Z,94.25
2023-08-31T02:40:09.902Z,94.62
2023-08-31T02:42:37.073Z,93.70
2023-08-31T02:45:05.180Z,93.72
2023-08-31T02:47:32.461Z,95.78
2023-08-31T02:50:00.835Z,94.75
2023-08-31T02:52:28.124Z,94.83
2023-08-31T02:54:55.250Z,95.90
2023-08-31T02:57:22.957Z,95.97
2023-08-31T02:59:53.428Z,95.85
2023-08-31T03:02:21.405Z,95.92
2023-08-31T03:04:48.608Z,96.13
2023-08-31T03:07:16.504Z,96.43
2023-08-31T03:09:43.701Z,95.95
2023-08-31T03:12:10.855Z,95.96
2023-08-31T03:14:38.404Z,97.77
2023-08-31T03:17:05.547Z,96.06
2023-08-31T03:19:32.595Z,96.71
2023-08-31T03:21:59.821Z,96.11
2023-08-31T03:24:27.696Z,96.05
2023-08-31T03:26:57.222Z,97.64
2023-08-31T03:29:24.338Z,97.40
2023-08-31T03:31:51.568Z,96.25
2023-08-31T03:34:18.901Z,95.73
2023-08-31T03:36:46.247Z,96.80
2023-08-31T03:39:13.402Z,97.48
2023-08-31T03:41:40.516Z,97.27
2023-08-31T03:44:09.407Z,96.70
2023-08-31T03:46:36.483Z,95.26
2023-08-31T03:49:03.682Z,95.44
2023-08-31T03:51:30.843Z,96.70
2023-08-31T03:53:58.020Z,96.25
2023-08-31T03:56:25.142Z,96.34
2023-08-31T03:58:52.407Z,96.43
2023-08-31T04:01:19.522Z,97.92
2023-08-31T04:03:47.766Z,98.13
2023-08-31T04:06:15.895Z,97.50
2023-08-31T04:08:43.049Z,96.71
2023-08-31T04:11:10.117Z,95.90
2023-08-31T04:13:37.488Z,97.03
2023-08-31T04:16:04.767Z,99.06
2023-08-31T04:18:32.028Z,98.38
2023-08-31T04:21:02.633Z,97.93
2023-08-31T04:23:30.250Z,98.09
2023-08-31T04:25:58.843Z,98.87
2023-08-31T04:28:26.217Z,96.74
2023-08-31T04:30:53.400Z,97.33
2023-08-31T04:33:20.766Z,96.93
2023-08-31T04:35:47.959Z,97.64
2023-08-31T04:38:15.046Z,98.97
2023-08-31T04:40:42.046Z,100.00
2023-08-31T04:43:09.337Z,99.50
2023-08-31T04:45:36.558Z,98.49
2023-08-31T04:48:04.390Z,97.56
2023-08-31T04:50:31.484Z,97.54
2023-08-31T04:52:59.181Z,97.30
2023-08-31T04:55:26.500Z,97.57
2023-08-31T04:57:53.655Z,96.90
2023-08-31T05:00:20.652Z,97.47
2023-08-31T05:02:47.885Z,96.15
2023-08-31T05:05:15.203Z,97.14
2023-08-31T05:07:42.588Z,97.81
2023-08-31T05:10:09.829Z,98.24
2023-08-31T05:12:37.056Z,98.58
2023-08-31T05:15:04.234Z,96.22
2023-08-31T05:17:32.238Z,94.39
2023-08-31T05:19:59.359Z,92.33
2023-08-31T05:22:26.530Z,91.79
2023-08-31T05:24:53.584Z,90.41
2023-08-31T05:27:20.810Z,90.37
2023-08-31T05:29:47.991Z,90.41
2023-08-31T05:32:15.217Z,90.50
2023-08-31T05:34:42.363Z,90.25
2023-08-31T05:37:09.705Z,89.77
2023-08-31T05:39:37.005Z,88.79
2023-08-31T05:42:04.396Z,88.85
2023-08-31T05:44:31.512Z,88.35
2023-08-31T05:46:58.718Z,89.42
2023-08-31T05:49:25.788Z,88.93
2023-08-31T05:51:52.911Z,86.79
2023-08-31T05:54:20.045Z,87.00
2023-08-31T05:56:48.918Z,86.01
2023-08-31T05:59:15.964Z,86.14
2023-08-31T06:01:44.526Z,86.53
2023-08-31T06:04:11.671Z,85.72
2023-08-31T06:06:38.961Z,86.58
2023-08-31T06:09:07.866Z,88.84
2023-08-31T06:11:36.218Z,86.27
2023-08-31T06:14:04.509Z,84.74
2023-08-31T06:16:31.726Z,85.69
2023-08-31T06:18:58.833Z,85.45
2023-08-31T06:21:25.869Z,86.22
2023-08-31T06:23:52.972Z,87.93
2023-08-31T06:26:20.179Z,90.14
2023-08-31T06:28:47.272Z,89.21
2023-08-31T06:31:14.374Z,89.28
2023-08-31T06:33:41.919Z,87.21
2023-08-31T06:36:09.106Z,83.78
2023-08-31T06:38:36.559Z,82.03
2023-08-31T06:41:03.973Z,82.05
2023-08-31T06:43:31.084Z,82.38
2023-08-31T06:46:04.389Z,81.25
2023-08-31T06:48:37.732Z,82.82
2023-08-31T06:51:05.049Z,84.27
2023-08-31T06:53:35.130Z,85.99
2023-08-31T06:56:02.222Z,87.24
2023-08-31T06:58:29.279Z,84.02
2023-08-31T07:00:56.405Z,86.44
2023-08-31T07:03:26.225Z,82.46
2023-08-31T07:05:55.317Z,81.50
2023-08-31T07:08:22.464Z,82.75
2023-08-31T07:10:53.077Z,80.61
2023-08-31T07:13:20.141Z,81.35
2023-08-31T07:15:49.611Z,80.49
2023-08-31T07:18:16.827Z,80.35
2023-08-31T07:20:46.284Z,79.07
2023-08-31T07:23:13.539Z,78.84
2023-08-31T07:25:40.923Z,77.03
2023-08-31T07:28:08.104Z,75.96
2023-08-31T07:30:35.308Z,76.23
2023-08-31T07:33:11.154Z,74.74
2023-08-31T07:35:41.139Z,74.58
2023-08-31T07:38:08.174Z,75.67
2023-08-31T07:40:35.419Z,75.85
2023-08-31T07:43:02.517Z,75.55
2023-08-31T07:45:29.617Z,75.68
2023-08-31T07:47:56.883Z,74.12
2023-08-31T07:50:24.059Z,73.14
2023-08-31T07:52:51.153Z,72.58
2023-08-31T07:55:18.318Z,71.04
2023-08-31T07:57:45.858Z,69.53
2023-08-31T08:00:15.516Z,67.40
2023-08-31T08:02:42.931Z,65.39
2023-08-31T08:05:10.207Z,64.61
2023-08-31T08:07:37.500Z,62.17
2023-08-31T08:10:04.825Z,61.54
2023-08-31T08:12:44.698Z,61.99
2023-08-31T08:15:12.207Z,61.33
2023-08-31T08:17:39.845Z,61.87
2023-08-31T08:20:07.917Z,61.96
2023-08-31T08:22:35.094Z,62.51
2023-08-31T08:25:02.183Z,64.94
2023-08-31T08:31:52.123Z,59.94
2023-08-31T08:34:19.249Z,60.99
2023-08-31T08:36:46.284Z,60.56
2023-08-31T08:39:13.501Z,61.13
2023-08-31T08:41:40.674Z,60.66
2023-08-31T08:44:08.189Z,59.24
2023-08-31T08:46:35.953Z,60.97
2023-08-31T08:49:04.014Z,61.35
2023-08-31T08:51:32.490Z,59.86
2023-08-31T08:54:00.564Z,60.04
2023-08-31T08:56:27.695Z,60.62
2023-08-31T08:58:55.229Z,59.30
2023-08-31T09:01:24.080Z,61.14
2023-08-31T09:03:52.517Z,60.65
2023-08-31T09:06:21.864Z,59.11
2023-08-31T09:08:55.048Z,58.50
2023-08-31T09:11:25.231Z,59.27
2023-08-31T09:13:53.106Z,59.17
2023-08-31T09:16:30.187Z,60.71
2023-08-31T09:18:57.722Z,60.23
2023-08-31T09:21:38.220Z,59.66
2023-08-31T09:24:14.790Z,59.92
2023-08-31T09:26:46.307Z,59.30
2023-08-31T09:29:13.697Z,60.76
2023-08-31T09:31:45.260Z,59.52
2023-08-31T09:34:12.536Z,58.29
2023-08-31T09:36:39.559Z,59.09
2023-08-31T09:39:07.504Z,57.29
2023-08-31T09:41:35.700Z,56.77
2023-08-31T09:44:19.289Z,56.94
2023-08-31T09:46:46.688Z,55.47
2023-08-31T09:49:15.397Z,55.78
2023-08-31T09:51:47.004Z,55.16
2023-08-31T09:54:15.017Z,57.53
2023-08-31T09:56:47.687Z,57.46
2023-08-31T09:59:17.475Z,59.35
2023-08-31T10:01:48.525Z,58.25
2023-08-31T10:04:16.592Z,55.07
2023-08-31T10:06:44.119Z,55.83
2023-08-31T10:09:13.871Z,56.84
2023-08-31T10:11:43.380Z,55.85
2023-08-31T10:14:12.248Z,56.54
2023-08-31T10:16:44.923Z,56.88
2023-08-31T10:19:12.382Z,54.88
2023-08-31T10:21:41.888Z,53.70
2023-08-31T10:24:09.426Z,54.49
2023-08-31T10:26:36.705Z,54.28
2023-08-31T10:29:07.356Z,54.01
2023-08-31T10:31:35.173Z,53.28
2023-08-31T10:34:06.380Z,51.74
2023-08-31T10:36:36.443Z,51.01
2023-08-31T10:39:09.269Z,52.61
2023-08-31T10:41:39.265Z,53.01
2023-08-31T10:44:19.300Z,53.25
2023-08-31T10:46:46.813Z,52.47
2023-08-31T10:49:15.547Z,50.82
2023-08-31T10:51:44.325Z,53.09
2023-08-31T10:54:20.810Z,53.50
2023-08-31T10:57:09.661Z,55.04
2023-08-31T10:59:44.581Z,53.42
2023-08-31T11:02:11.850Z,54.03
2023-08-31T11:04:56.620Z,53.13
2023-08-31T11:07:25.885Z,54.39
2023-08-31T11:09:53.817Z,53.30
2023-08-31T11:12:23.499Z,51.42
2023-08-31T11:14:50.889Z,51.82
2023-08-31T11:17:18.022Z,52.95
2023-08-31T11:19:45.523Z,50.98
2023-08-31T11:22:12.666Z,52.71
2023-08-31T11:24:48.669Z,52.05
2023-08-31T11:27:19.600Z,52.51
2023-08-31T11:29:46.827Z,52.25
2023-08-31T11:32:14.119Z,51.31
2023-08-31T11:34:43.228Z,50.35
2023-08-31T11:37:11.101Z,49.97
2023-08-31T11:39:38.816Z,49.92
2023-08-31T11:42:06.011Z,49.68
2023-08-31T11:44:33.299Z,50.86
2023-08-31T11:47:00.876Z,50.09
2023-08-31T11:49:28.407Z,50.05
2023-08-31T11:51:55.845Z,51.48
2023-08-31T11:54:25.474Z,51.92
2023-08-31T11:56:52.628Z,51.74
2023-08-31T11:59:20.182Z,51.53
2023-08-31T12:01:49.043Z,51.42
2023-08-31T12:04:26.630Z,51.46
2023-08-31T12:06:56.918Z,49.62
2023-08-31T12:09:24.234Z,49.56
2023-08-31T12:11:52.553Z,51.00
2023-08-31T12:14:23.864Z,51.51
2023-08-31T12:16:51.802Z,51.76
2023-08-31T12:19:19.241Z,50.89
2023-08-31T12:21:47.321Z,50.43
2023-08-31T12:24:15.125Z,48.51
2023-08-31T12:26:42.247Z,48.86
2023-08-31T12:29:09.420Z,48.19
2023-08-31T12:31:37.205Z,48.44
2023-08-31T12:34:05.874Z,50.42
2023-08-31T12:36:38.440Z,49.49
2023-08-31T12:39:07.928Z,50.15
2023-08-31T12:41:35.050Z,48.75
2023-08-31T12:44:02.140Z,50.18
2023-08-31T12:46:29.237Z,48.38
2023-08-31T12:48:56.500Z,49.28
2023-08-31T12:51:23.800Z,48.89
2023-08-31T12:53:50.887Z,47.64
2023-08-31T12:56:22.715Z,47.29
2023-08-31T12:58:50.969Z,46.68
2023-08-31T13:01:19.009Z,47.42
2023-08-31T13:03:46.706Z,47.82
2023-08-31T13:06:14.286Z,49.02
2023-08-31T13:08:41.512Z,50.55
2023-08-31T13:11:08.628Z,48.76
2023-08-31T13:13:35.733Z,47.95
2023-08-31T13:16:04.017Z,47.06
2023-08-31T13:18:31.259Z,46.43
2023-08-31T13:20:58.443Z,46.00
2023-08-31T13:23:25.621Z,45.79
2023-08-31T13:25:52.809Z,46.71
2023-08-31T13:28:20.125Z,47.98
2023-08-31T13:30:47.554Z,46.13
2023-08-31T13:33:14.974Z,46.25
2023-08-31T13:35:42.100Z,48.17
2023-08-31T13:38:09.338Z,47.25
2023-08-31T13:40:37.725Z,46.63
2023-08-31T13:43:05.198Z,46.63
2023-08-31T13:45:33.407Z,45.84
2023-08-31T13:48:01.727Z,45.38
2023-08-31T13:50:29.228Z,45.96
2023-08-31T13:52:56.468Z,47.95
2023-08-31T13:55:24.374Z,47.87
2023-08-31T13:57:51.640Z,47.63
2023-08-31T14:00:19.549Z,49.30
2023-08-31T14:02:47.000Z,49.40
2023-08-31T14:05:15.820Z,50.01
2023-08-31T14:07:43.223Z,49.79
2023-08-31T14:10:10.680Z,49.24
2023-08-31T14:12:38.066Z,49.01
2023-08-31T14:15:07.272Z,49.21
2023-08-31T14:17:34.691Z,50.05
2023-08-31T14:20:06.831Z,51.23
2023-08-31T14:22:34.279Z,50.87
2023-08-31T14:25:02.311Z,50.48
2023-08-31T14:27:31.152Z,50.15
2023-08-31T14:29:59.390Z,49.48
2023-08-31T14:32:28.762Z,49.96
2023-08-31T14:34:56.678Z,49.79
2023-08-31T14:37:23.959Z,49.60
2023-08-31T14:39:51.374Z,48.95
2023-08-31T14:42:21.484Z,48.58
2023-08-31T14:44:56.707Z,48.27
2023-08-31T14:47:24.134Z,48.73
2023-08-31T14:49:51.442Z,48.52
2023-08-31T14:52:18.798Z,49.20
2023-08-31T14:54:46.300Z,49.59
2023-08-31T14:57:13.628Z,50.83
2023-08-31T14:59:41.093Z,50.77
2023-08-31T15:02:37.032Z,50.39
2023-08-31T15:05:05.960Z,51.22
2023-08-31T15:08:02.001Z,50.37
2023-08-31T15:10:29.328Z,51.52
2023-08-31T15:12:59.672Z,51.86
2023-08-31T15:15:27.597Z,50.64
2023-08-31T15:17:55.652Z,51.63
2023-08-31T15:20:25.644Z,51.33
2023-08-31T15:23:43.608Z,51.56
2023-08-31T15:26:35.944Z,53.16
2023-08-31T15:29:05.142Z,51.87
2023-08-31T15:31:32.780Z,51.17
2023-08-31T15:34:00.153Z,51.22
2023-08-31T15:36:31.171Z,51.60
2023-08-31T15:38:58.687Z,49.53
2023-08-31T15:41:26.283Z,50.18
2023-08-31T15:43:53.613Z,48.74
2023-08-31T15:46:20.933Z,49.03
2023-08-31T15:48:50.126Z,48.47
2023-08-31T15:51:17.576Z,47.04
2023-08-31T15:53:44.839Z,47.88
2023-08-31T15:56:12.209Z,45.91
2023-08-31T15:58:39.519Z,47.62
2023-08-31T16:01:10.879Z,47.69
2023-08-31T16:03:38.800Z,48.98
2023-08-31T16:06:09.044Z,48.59
2023-08-31T16:08:36.540Z,48.83
2023-08-31T16:11:07.223Z,48.19
2023-08-31T16:13:36.868Z,48.38
2023-08-31T16:16:04.421Z,48.07
2023-08-31T16:18:31.816Z,48.01
2023-08-31T16:21:02.422Z,48.36
2023-08-31T16:23:29.743Z,48.82
2023-08-31T16:30:37.558Z,49.78
2023-08-31T16:33:05.251Z,48.99
2023-08-31T16:35:33.447Z,51.05
2023-08-31T16:38:02.145Z,49.94
2023-08-31T16:40:29.412Z,49.05
2023-08-31T16:42:56.735Z,49.25
2023-08-31T16:45:24.108Z,49.67
2023-08-31T16:47:51.498Z,49.47
2023-08-31T16:50:36.185Z,49.27
2023-08-31T16:53:04.391Z,48.80
2023-08-31T16:55:32.553Z,50.25
2023-08-31T16:58:04.689Z,50.14
2023-08-31T17:00:32.023Z,50.36
2023-08-31T17:02:59.422Z,51.08
2023-08-31T17:05:29.967Z,49.77
2023-08-31T17:07:57.492Z,49.33
2023-08-31T17:10:24.879Z,50.05
2023-08-31T17:12:53.446Z,50.49
2023-08-31T17:15:20.752Z,51.81
2023-08-31T17:17:49.348Z,51.79
2023-08-31T17:20:17.848Z,52.08
2023-08-31T17:22:46.233Z,52.23
2023-08-31T17:25:14.223Z,52.71
2023-08-31T17:27:43.567Z,53.11
2023-08-31T17:30:11.120Z,54.02
2023-08-31T17:32:38.620Z,53.79
2023-08-31T17:35:07.525Z,54.80
2023-08-31T17:37:35.849Z,57.17
2023-08-31T17:40:08.069Z,56.81
2023-08-31T17:42:41.153Z,56.71
2023-08-31T17:45:09.827Z,58.14
2023-08-31T17:47:37.187Z,59.57
2023-08-31T17:50:04.965Z,59.82
2023-08-31T17:52:32.409Z,59.40
2023-08-31T17:55:00.069Z,61.06
2023-08-31T17:57:29.862Z,61.77
2023-08-31T17:59:57.252Z,62.76
2023-08-31T18:02:24.689Z,63.29
2023-08-31T18:04:52.141Z,63.62
2023-08-31T18:07:19.531Z,63.32
2023-08-31T18:09:46.792Z,65.33
2023-08-31T18:12:14.148Z,65.06
2023-08-31T18:14:44.625Z,65.74
2023-08-31T18:17:12.699Z,66.97
2023-08-31T18:19:40.209Z,66.59
2023-08-31T18:22:07.618Z,66.80
2023-08-31T18:24:36.881Z,68.29
2023-08-31T18:27:04.652Z,68.81
2023-08-31T18:29:31.918Z,69.11
2023-08-31T18:31:59.188Z,68.48
2023-08-31T18:34:27.286Z,67.79
2023-08-31T18:36:54.705Z,68.46
2023-08-31T18:39:23.598Z,68.76
2023-08-31T18:41:51.506Z,68.86
2023-08-31T18:44:18.868Z,68.80
2023-08-31T18:46:46.147Z,69.34
2023-08-31T18:49:13.547Z,68.93
2023-08-31T18:51:44.717Z,69.12
2023-08-31T18:54:12.191Z,69.73
2023-08-31T18:56:40.037Z,70.23
2023-08-31T18:59:07.677Z,71.06
2023-08-31T19:01:35.007Z,71.46
2023-08-31T19:04:04.449Z,72.01
2023-08-31T19:06:35.273Z,71.59
2023-08-31T19:09:04.664Z,72.88
2023-08-31T19:11:32.148Z,72.84
2023-08-31T19:13:59.478Z,72.71
2023-08-31T19:16:26.707Z,75.04
2023-08-31T19:18:54.910Z,74.70
2023-08-31T19:21:23.669Z,73.39
2023-08-31T19:23:50.727Z,72.87
2023-08-31T19:26:18.360Z,73.17
2023-08-31T19:28:45.517Z,73.20
2023-08-31T19:31:12.687Z,73.95
2023-08-31T19:33:39.857Z,74.54
2023-08-31T19:36:07.098Z,74.56
2023-08-31T19:38:34.606Z,75.31
2023-08-31T19:41:01.779Z,74.80
2023-08-31T19:43:28.905Z,74.49
2023-08-31T19:45:56.053Z,73.88
2023-08-31T19:48:23.717Z,74.10
2023-08-31T19:50:53.079Z,73.92
2023-08-31T19:53:20.712Z,73.53
2023-08-31T19:55:49.757Z,73.47
2023-08-31T19:58:17.359Z,72.34
2023-08-31T20:00:44.443Z,72.75
2023-08-31T20:03:11.751Z,72.62
2023-08-31T20:05:38.920Z,72.15
2023-08-31T20:08:06.288Z,72.32
2023-08-31T20:10:33.500Z,71.36
2023-08-31T20:13:00.691Z,71.53
2023-08-31T20:15:27.875Z,72.32
2023-08-31T20:17:55.076Z,73.16
2023-08-31T20:20:22.262Z,73.11
2023-08-31T20:22:50.361Z,72.06
2023-08-31T20:25:19.718Z,72.59
2023-08-31T20:27:47.991Z,73.92
2023-08-31T20:30:15.222Z,74.98
2023-08-31T20:32:42.576Z,75.21
2023-08-31T20:35:11.586Z,73.59
2023-08-31T20:37:38.943Z,74.62
2023-08-31T20:40:10.093Z,74.92
2023-08-31T20:42:37.729Z,73.69
2023-08-31T20:45:06.339Z,73.87
2023-08-31T20:47:33.458Z,75.33
2023-08-31T20:50:00.811Z,74.27
2023-08-31T20:52:31.238Z,75.76
2023-08-31T20:54:59.194Z,75.44
2023-08-31T20:57:26.511Z,76.02
2023-08-31T20:59:54.532Z,76.30
2023-08-31T21:02:21.670Z,76.02
2023-08-31T21:04:49.499Z,73.98
2023-08-31T21:07:16.679Z,74.72
2023-08-31T21:09:45.708Z,75.31
2023-08-31T21:12:14.028Z,76.89
2023-08-31T21:14:41.216Z,76.75
2023-08-31T21:17:08.313Z,77.51
2023-08-31T21:19:35.442Z,77.87
2023-08-31T21:22:02.576Z,77.15
2023-08-31T21:24:29.825Z,76.82
2023-08-31T21:26:56.893Z,77.35
2023-08-31T21:29:24.265Z,77.88
2023-08-31T21:31:51.423Z,78.56
2023-08-31T21:34:18.680Z,77.52
2023-08-31T21:36:45.874Z,77.81
2023-08-31T21:39:12.919Z,78.77
2023-08-31T21:41:40.037Z,77.67
2023-08-31T21:44:07.220Z,77.62
2023-08-31T21:46:34.402Z,77.30
2023-08-31T21:49:01.464Z,77.55
2023-08-31T21:51:28.640Z,78.61
2023-08-31T21:53:56.926Z,78.79
2023-08-31T21:56:23.996Z,79.12
2023-08-31T21:58:51.056Z,80.16
2023-08-31T22:01:18.191Z,80.71
2023-08-31T22:03:45.451Z,82.59
2023-08-31T22:06:13.332Z,81.25
2023-08-31T22:08:41.752Z,81.51
2023-08-31T22:11:08.854Z,81.29
2023-08-31T22:13:36.622Z,79.40
2023-08-31T22:16:12.055Z,80.14
2023-08-31T22:18:50.312Z,79.97
2023-08-31T22:21:18.307Z,80.16
2023-08-31T22:23:45.406Z,79.60
2023-08-31T22:26:12.499Z,79.50
2023-08-31T22:28:39.710Z,79.70
2023-08-31T22:31:06.973Z,79.73
2023-08-31T22:33:34.262Z,80.08
2023-08-31T22:36:07.345Z,78.70
2023-08-31T22:38:34.510Z,78.45
2023-08-31T22:41:05.480Z,79.91
2023-08-31T22:43:32.553Z,80.97
2023-08-31T22:45:59.980Z,80.03
2023-08-31T22:48:27.265Z,79.01
2023-08-31T22:51:01.272Z,81.30
2023-08-31T22:53:28.756Z,80.70
2023-08-31T22:55:55.887Z,81.38
2023-08-31T22:58:22.999Z,82.01
2023-08-31T23:00:52.980Z,80.59
2023-08-31T23:03:21.249Z,81.26
2023-08-31T23:05:48.492Z,81.78
2023-08-31T23:08:15.973Z,81.58
2023-08-31T23:10:43.627Z,83.03
2023-08-31T23:13:10.951Z,83.79
2023-08-31T23:15:39.029Z,83.02
2023-08-31T23:18:06.659Z,82.64
2023-08-31T23:20:34.220Z,83.16
2023-08-31T23:23:01.496Z,82.92
2023-08-31T23:25:28.845Z,84.27
2023-08-31T23:27:56.159Z,84.48
2023-08-31T23:30:23.582Z,84.51
2023-08-31T23:32:51.043Z,85.19
2023-08-31T23:35:18.810Z,85.52
2023-08-31T23:37:46.258Z,85.21
2023-08-31T23:40:13.535Z,85.26
2023-08-31T23:42:43.545Z,85.71
2023-08-31T23:45:11.289Z,85.93
2023-08-31T23:47:38.651Z,86.88
2023-08-31T23:50:07.026Z,86.25
2023-08-31T23:52:34.379Z,86.02
2023-08-31T23:55:04.008Z,86.87
2023-08-31T23:57:37.358Z,87.23
